Queens Launch — WBJ9598 — position and weather

sailwx.info

Track history (hours):
 
Tides and Currents Weather Stations Pressure Air Temp Water Temp Dewpoint Dewpoint Depression Visibility Wind Speed Wind Dir Waves Ship Positions

Queens Launch

Owner: SEATTLE HARBOR TOURS/ARGOSY, SEATTLE, WA. More information available from US FCC via Universal Licensing System and Coast Guard Vessel Documentation Center.

Last reported at 2016-Jul-01 20:26 UTC. Time now 2016-Jul-01 20:49 UTC.
Position N 48°00' W 122°14'.

Length 12 m.

Type: Passenger vessel. MMSI: 367299090.

Date/timePositionNaut miles runAvg speedWind from/ knotsBaromVisibWave heightAir tempDewpointWater temp
2016-Jul-01 20:26N 48°00' W 122°14'0 0.0
2016-Jul-01 19:31N 48°00' W 122°14'0 0.1
2016-Jul-01 18:33N 48°00' W 122°13'0 0.0
2016-Jun-30 22:14N 48°00' W 122°13'0 0.0
2016-Jun-30 21:33N 48°00' W 122°13'0 0.4
2016-Jun-30 20:33N 47°60' W 122°13'7 6.9
2016-Jun-30 19:33N 47°55' W 122°20'7 6.9
2016-Jun-30 18:34N 47°48' W 122°24'7 7.0
2016-Jun-30 17:33N 47°41' W 122°25'4 2.6
2016-Jun-30 16:06N 47°39' W 122°21'  
2016-Jun-24 23:31N 47°38' W 122°20'2 2.3
2016-Jun-24 22:33N 47°40' W 122°22'2 0.9
2016-Jun-24 20:20N 47°38' W 122°20'1 0.8
2016-Jun-24 19:31N 47°38' W 122°20'0 0.0
2016-Jun-24 02:33N 47°38' W 122°20'1 1.2
2016-Jun-24 01:33N 47°39' W 122°20'1 1.2
2016-Jun-24 00:32N 47°38' W 122°20'0 0.0
2016-Jun-23 23:34N 47°38' W 122°20'0 0.0
2016-Jun-22 02:33N 47°38' W 122°20'2 1.9
2016-Jun-22 01:33N 47°39' W 122°18'4 3.6
2016-Jun-22 00:33N 47°40' W 122°13'1 0.5
2016-Jun-21 23:26N 47°39' W 122°13'1 0.6
2016-Jun-21 22:33N 47°39' W 122°12'2 1.7
2016-Jun-21 21:33N 47°39' W 122°15'  
Track history (hours):
 
Tides and Currents Weather Stations Pressure Air Temp Water Temp Dewpoint Dewpoint Depression Visibility Wind Speed Wind Dir Waves Ship Positions

Queens Launch

Owner: SEATTLE HARBOR TOURS/ARGOSY, SEATTLE, WA. More information available from US FCC via Universal Licensing System and Coast Guard Vessel Documentation Center.

Last reported at 2016-Jul-01 20:26 UTC. Time now 2016-Jul-01 20:49 UTC.
Position N 48°00' W 122°14'.

Length 12 m.

Type: Passenger vessel. MMSI: 367299090.

Date/timePositionNaut miles runAvg speedWind from/ knotsBaromVisibWave heightAir tempDewpointWater temp
2016-Jul-01 20:26N 48°00' W 122°14'0 0.0
2016-Jul-01 19:31N 48°00' W 122°14'0 0.1
2016-Jul-01 18:33N 48°00' W 122°13'0 0.0
2016-Jun-30 22:14N 48°00' W 122°13'0 0.0
2016-Jun-30 21:33N 48°00' W 122°13'0 0.4
2016-Jun-30 20:33N 47°60' W 122°13'7 6.9
2016-Jun-30 19:33N 47°55' W 122°20'7 6.9
2016-Jun-30 18:34N 47°48' W 122°24'7 7.0
2016-Jun-30 17:33N 47°41' W 122°25'4 2.6
2016-Jun-30 16:06N 47°39' W 122°21'  
2016-Jun-24 23:31N 47°38' W 122°20'2 2.3
2016-Jun-24 22:33N 47°40' W 122°22'2 0.9
2016-Jun-24 20:20N 47°38' W 122°20'1 0.8
2016-Jun-24 19:31N 47°38' W 122°20'0 0.0
2016-Jun-24 02:33N 47°38' W 122°20'1 1.2
2016-Jun-24 01:33N 47°39' W 122°20'1 1.2
2016-Jun-24 00:32N 47°38' W 122°20'0 0.0
2016-Jun-23 23:34N 47°38' W 122°20'0 0.0
2016-Jun-22 02:33N 47°38' W 122°20'2 1.9
2016-Jun-22 01:33N 47°39' W 122°18'4 3.6
2016-Jun-22 00:33N 47°40' W 122°13'1 0.5
2016-Jun-21 23:26N 47°39' W 122°13'1 0.6
2016-Jun-21 22:33N 47°39' W 122°12'2 1.7
2016-Jun-21 21:33N 47°39' W 122°15'  

Dump ship's entire track history